createdAt,value
2018-04-12T00:00:40.061Z,17.00
2018-04-12T00:03:14.411Z,11.90
2018-04-12T00:05:53.418Z,15.23
2018-04-12T00:08:30.496Z,12.67
2018-04-12T00:11:02.233Z,17.60
2018-04-12T00:13:33.828Z,13.30
2018-04-12T00:16:06.754Z,15.77
2018-04-12T00:18:40.059Z,12.67
2018-04-12T00:21:12.289Z,13.77
2018-04-12T00:23:44.027Z,13.93
2018-04-12T00:26:15.719Z,16.30
2018-04-12T00:28:48.598Z,13.63
2018-04-12T00:31:20.236Z,16.17
2018-04-12T00:33:51.915Z,16.67
2018-04-12T00:36:24.420Z,21.30
2018-04-12T00:41:50.128Z,13.17
2018-04-12T00:44:21.803Z,17.50
2018-04-12T00:46:53.398Z,11.83
2018-04-12T00:49:25.641Z,19.03
2018-04-12T00:51:58.064Z,15.73
2018-04-12T00:54:31.882Z,15.37
2018-04-12T00:57:04.525Z,15.90
2018-04-12T00:59:36.179Z,15.30
2018-04-12T01:02:07.812Z,16.73
2018-04-12T01:04:40.438Z,18.63
2018-04-12T01:07:12.383Z,14.03
2018-04-12T01:09:44.006Z,12.43
2018-04-12T01:12:15.672Z,13.97
2018-04-12T01:14:47.300Z,13.33
2018-04-12T01:17:20.061Z,13.83
2018-04-12T01:19:51.687Z,16.60
2018-04-12T01:22:23.278Z,16.83
2018-04-12T01:24:57.349Z,14.93
2018-04-12T01:27:30.280Z,11.53
2018-04-12T01:30:02.717Z,18.83
2018-04-12T01:32:35.449Z,16.00
2018-04-12T01:35:07.365Z,15.83
2018-04-12T01:37:39.893Z,13.07
2018-04-12T01:40:11.528Z,18.63
2018-04-12T01:42:43.860Z,20.10
2018-04-12T01:45:15.521Z,19.83
2018-04-12T01:47:47.137Z,17.67
2018-04-12T01:50:20.168Z,17.70
2018-04-12T01:52:51.797Z,17.53
2018-04-12T01:55:23.745Z,12.97
2018-04-12T01:57:55.405Z,14.17
2018-04-12T02:00:27.196Z,16.90
2018-04-12T02:02:59.629Z,19.40
2018-04-12T02:05:31.344Z,16.13
2018-04-12T02:08:03.705Z,16.20
2018-04-12T02:10:36.140Z,16.60
2018-04-12T02:13:07.816Z,22.17
2018-04-12T02:15:43.090Z,23.10
2018-04-12T02:18:15.769Z,18.60
2018-04-12T02:20:47.408Z,20.30
2018-04-12T02:23:20.376Z,20.93
2018-04-12T02:25:52.779Z,18.27
2018-04-12T02:28:33.403Z,16.27
2018-04-12T02:31:05.536Z,20.07
2018-04-12T02:33:40.605Z,18.13
2018-04-12T02:36:12.292Z,18.57
2018-04-12T02:38:43.951Z,23.23
2018-04-12T02:41:15.604Z,24.20
2018-04-12T02:43:47.256Z,17.37
2018-04-12T02:46:19.735Z,17.73
2018-04-12T02:48:52.608Z,16.20
2018-04-12T02:51:24.255Z,18.97
2018-04-12T02:53:56.405Z,21.33
2018-04-12T02:56:29.347Z,15.80
2018-04-12T02:59:02.681Z,20.17
2018-04-12T03:01:35.045Z,21.63
2018-04-12T03:04:07.014Z,22.23
2018-04-12T03:06:39.365Z,19.83
2018-04-12T03:09:11.023Z,24.40
2018-04-12T03:11:42.668Z,21.27
2018-04-12T03:14:15.438Z,17.97
2018-04-12T03:16:47.048Z,23.87
2018-04-12T03:19:18.717Z,20.20
2018-04-12T03:21:50.502Z,19.30
2018-04-12T03:24:24.258Z,23.03
2018-04-12T03:26:57.092Z,19.27
2018-04-12T03:29:28.736Z,28.63
2018-04-12T03:32:00.408Z,23.50
2018-04-12T03:34:32.081Z,23.07
2018-04-12T03:37:05.016Z,20.60
2018-04-12T03:39:36.646Z,21.73
2018-04-12T03:42:09.332Z,18.77
2018-04-12T03:44:41.326Z,27.07
2018-04-12T03:47:13.685Z,23.23
2018-04-12T03:49:47.489Z,23.97
2018-04-12T03:52:20.472Z,25.70
2018-04-12T03:54:52.137Z,21.60
2018-04-12T03:57:23.765Z,19.53
2018-04-12T03:59:56.159Z,26.00
2018-04-12T04:02:28.476Z,24.83
2018-04-12T04:05:00.462Z,17.67
2018-04-12T04:07:32.129Z,28.23
2018-04-12T04:10:04.635Z,22.97
2018-04-12T04:12:36.263Z,25.67
2018-04-12T04:15:20.842Z,27.53
2018-04-12T04:18:04.724Z,28.07
2018-04-12T04:20:49.435Z,28.90
2018-04-12T04:23:21.152Z,21.63
2018-04-12T04:25:52.796Z,23.37
2018-04-12T04:28:24.491Z,23.93
2018-04-12T04:30:56.133Z,25.50
2018-04-12T04:33:29.488Z,24.93
2018-04-12T04:36:01.908Z,27.83
2018-04-12T04:41:15.255Z,23.27
2018-04-12T04:43:46.993Z,28.30
2018-04-12T04:46:18.688Z,27.80
2018-04-12T04:48:50.332Z,23.17
2018-04-12T04:51:22.000Z,26.70
2018-04-12T04:53:53.601Z,20.20
2018-04-12T04:56:25.252Z,24.27
2018-04-12T04:58:56.872Z,25.70
2018-04-12T05:01:29.344Z,25.93
2018-04-12T05:04:00.983Z,29.63
2018-04-12T05:06:32.604Z,27.17
2018-04-12T05:09:04.324Z,24.03
2018-04-12T05:11:35.928Z,30.83
2018-04-12T05:14:07.589Z,26.13
2018-04-12T05:16:39.208Z,27.70
2018-04-12T05:19:10.905Z,22.60
2018-04-12T05:21:42.658Z,25.47
2018-04-12T05:24:14.299Z,26.47
2018-04-12T05:26:45.973Z,28.17
2018-04-12T05:29:17.585Z,24.23
2018-04-12T05:31:49.224Z,22.37
2018-04-12T05:34:20.876Z,27.23
2018-04-12T05:36:52.493Z,25.30
2018-04-12T05:39:24.849Z,21.67
2018-04-12T05:41:56.481Z,24.23
2018-04-12T05:44:28.102Z,24.63
2018-04-12T05:46:59.801Z,23.90
2018-04-12T05:49:31.413Z,27.47
2018-04-12T05:52:03.068Z,24.17
2018-04-12T05:54:34.674Z,22.80
2018-04-12T05:57:07.124Z,22.17
2018-04-12T05:59:38.766Z,25.40
2018-04-12T06:02:10.419Z,20.00
2018-04-12T06:04:42.031Z,24.83
2018-04-12T06:07:14.413Z,26.87
2018-04-12T06:09:46.022Z,23.90
2018-04-12T06:12:17.664Z,23.07
2018-04-12T06:14:49.249Z,18.73
2018-04-12T06:17:21.648Z,18.53
2018-04-12T06:19:53.235Z,22.17
2018-04-12T06:22:25.107Z,21.90
2018-04-12T06:24:56.712Z,23.10
2018-04-12T06:27:28.347Z,23.67
2018-04-12T06:29:59.944Z,21.77
2018-04-12T06:32:32.618Z,19.53
2018-04-12T06:35:04.276Z,20.17
2018-04-12T06:37:35.929Z,21.77
2018-04-12T06:40:09.445Z,19.70
2018-04-12T06:42:41.096Z,16.77
2018-04-12T06:45:12.772Z,17.70
2018-04-12T06:47:45.405Z,19.43
2018-04-12T06:50:17.073Z,20.77
2018-04-12T06:52:48.688Z,16.57
2018-04-12T06:55:20.343Z,16.70
2018-04-12T06:57:51.964Z,15.33
2018-04-12T07:00:24.685Z,18.27
2018-04-12T07:02:56.345Z,17.23
2018-04-12T07:05:27.979Z,15.53
2018-04-12T07:07:59.646Z,19.33
2018-04-12T07:10:31.273Z,18.73
2018-04-12T07:13:04.483Z,19.73
2018-04-12T07:15:36.089Z,17.90
2018-04-12T07:18:08.760Z,14.83
2018-04-12T07:20:40.350Z,17.47
2018-04-12T07:23:11.983Z,18.10
2018-04-12T07:25:44.392Z,18.63
2018-04-12T07:28:15.984Z,16.23
2018-04-12T07:30:47.628Z,18.40
2018-04-12T07:33:19.241Z,16.00
2018-04-12T07:35:51.902Z,20.57
2018-04-12T07:38:24.260Z,17.00
2018-04-12T07:40:56.687Z,16.90
2018-04-12T07:43:28.308Z,18.10
2018-04-12T07:46:00.030Z,18.47
2018-04-12T07:48:31.643Z,16.80
2018-04-12T07:51:03.355Z,17.97
2018-04-12T07:53:35.679Z,17.47
2018-04-12T07:56:07.383Z,24.53
2018-04-12T07:58:39.719Z,17.60
2018-04-12T08:01:11.377Z,17.40
2018-04-12T08:03:42.978Z,19.93
2018-04-12T08:06:14.635Z,18.47
2018-04-12T08:08:46.237Z,15.47
2018-04-12T08:11:17.866Z,15.20
2018-04-12T08:13:49.494Z,20.53
2018-04-12T08:16:21.209Z,17.17
2018-04-12T08:18:52.821Z,19.20
2018-04-12T08:21:24.457Z,15.73
2018-04-12T08:23:57.078Z,18.50
2018-04-12T08:26:28.726Z,22.70
2018-04-12T08:29:00.321Z,18.17
2018-04-12T08:31:32.716Z,16.43
2018-04-12T08:34:04.331Z,17.53
2018-04-12T08:36:35.972Z,18.03
2018-04-12T08:39:07.603Z,15.20
2018-04-12T08:41:39.256Z,18.40
2018-04-12T08:44:11.851Z,17.17
2018-04-12T08:46:43.487Z,16.60
2018-04-12T08:49:16.177Z,16.07
2018-04-12T08:51:47.825Z,16.57
2018-04-12T08:54:19.485Z,18.35
2018-04-12T08:56:51.116Z,21.15
2018-04-12T08:59:22.719Z,17.10
2018-04-12T09:01:55.109Z,16.77
2018-04-12T09:04:26.709Z,17.17
2018-04-12T09:06:58.418Z,19.50
2018-04-12T09:09:30.081Z,20.45
2018-04-12T09:12:01.721Z,19.00
2018-04-12T09:14:33.338Z,17.65
2018-04-12T09:17:05.037Z,19.25
2018-04-12T09:19:36.993Z,20.60
2018-04-12T09:22:08.674Z,18.10
2018-04-12T09:24:41.040Z,21.20
2018-04-12T09:27:12.688Z,15.37
2018-04-12T09:29:44.348Z,19.40
2018-04-12T09:32:15.956Z,18.27
2018-04-12T09:34:49.412Z,17.73
2018-04-12T09:37:21.009Z,22.42
2018-04-12T09:39:53.414Z,21.70
2018-04-12T09:42:26.066Z,16.27
2018-04-12T09:44:57.719Z,15.27
2018-04-12T09:47:30.072Z,15.52
2018-04-12T09:50:02.749Z,23.12
2018-04-12T09:52:35.397Z,17.62
2018-04-12T09:55:07.080Z,20.02
2018-04-12T09:57:38.721Z,18.15
2018-04-12T10:03:07.425Z,20.17
2018-04-12T10:08:55.073Z,22.15
2018-04-12T10:11:31.235Z,20.15
2018-04-12T10:14:05.495Z,19.10
2018-04-12T10:16:40.163Z,21.83
2018-04-12T10:19:14.017Z,18.47
2018-04-12T10:21:47.696Z,19.67
2018-04-12T10:24:22.153Z,21.50
2018-04-12T10:26:55.824Z,18.00
2018-04-12T10:29:30.262Z,22.57
2018-04-12T10:32:03.708Z,17.70
2018-04-12T10:34:38.349Z,19.80
2018-04-12T10:37:12.024Z,19.17
2018-04-12T10:39:45.706Z,16.93
2018-04-12T10:42:19.377Z,19.27
2018-04-12T10:44:54.564Z,16.83
2018-04-12T10:47:28.235Z,19.87
2018-04-12T10:50:01.912Z,22.90
2018-04-12T10:52:37.325Z,18.73
2018-04-12T10:55:11.016Z,19.83
2018-04-12T10:57:45.708Z,19.73
2018-04-12T11:00:20.440Z,22.07
2018-04-12T11:02:55.096Z,22.73
2018-04-12T11:05:29.785Z,23.30
2018-04-12T11:08:04.456Z,19.23
2018-04-12T11:10:39.874Z,17.97
2018-04-12T11:13:13.568Z,23.23
2018-04-12T11:15:49.313Z,21.30
2018-04-12T11:18:23.668Z,20.83
2018-04-12T11:20:58.872Z,21.27
2018-04-12T11:23:33.525Z,18.87
2018-04-12T11:26:07.223Z,20.17
2018-04-12T11:28:41.663Z,19.37
2018-04-12T11:31:16.115Z,19.80
2018-04-12T11:33:50.754Z,20.30
2018-04-12T11:36:24.424Z,24.30
2018-04-12T11:38:58.089Z,22.90
2018-04-12T11:41:31.762Z,20.83
2018-04-12T11:44:05.789Z,19.43
2018-04-12T11:46:40.226Z,19.90
2018-04-12T11:49:13.914Z,21.77
2018-04-12T11:51:47.604Z,19.70
2018-04-12T11:54:22.232Z,21.63
2018-04-12T11:56:56.877Z,21.63
2018-04-12T11:59:30.553Z,19.43
2018-04-12T12:02:04.232Z,19.23
2018-04-12T12:04:38.879Z,19.23
2018-04-12T12:07:12.572Z,20.50
2018-04-12T12:09:46.244Z,24.50
2018-04-12T12:12:19.998Z,20.67
2018-04-12T12:14:53.683Z,22.40
2018-04-12T12:17:27.369Z,19.20
2018-04-12T12:20:01.046Z,22.70
2018-04-12T12:22:34.725Z,21.97
2018-04-12T12:25:10.150Z,21.40
2018-04-12T12:27:43.824Z,20.30
2018-04-12T12:30:17.216Z,22.07
2018-04-12T12:32:50.899Z,19.67
2018-04-12T12:35:24.599Z,20.63
2018-04-12T12:37:58.285Z,19.57
2018-04-12T12:40:32.968Z,22.93
2018-04-12T12:43:06.656Z,22.50
2018-04-12T12:45:40.327Z,19.90
2018-04-12T12:48:14.995Z,23.43
2018-04-12T12:50:48.663Z,25.17
2018-04-12T12:53:22.351Z,24.07
2018-04-12T12:55:56.052Z,22.17
2018-04-12T12:58:29.896Z,21.97
2018-04-12T13:01:04.536Z,24.60
2018-04-12T13:03:38.251Z,21.90
2018-04-12T13:06:12.092Z,20.73
2018-04-12T13:08:45.819Z,22.77
2018-04-12T13:11:19.210Z,25.10
2018-04-12T13:13:52.901Z,21.30
2018-04-12T13:16:27.532Z,22.47
2018-04-12T13:19:01.204Z,23.47
2018-04-12T13:21:34.875Z,21.00
2018-04-12T13:24:09.128Z,23.57
2018-04-12T13:26:43.552Z,25.77
2018-04-12T13:29:18.980Z,20.90
2018-04-12T13:31:52.885Z,28.33
2018-04-12T13:34:29.475Z,24.33
2018-04-12T13:37:03.990Z,22.73
2018-04-12T13:39:38.669Z,22.67
2018-04-12T13:42:12.131Z,25.00
2018-04-12T13:44:45.813Z,23.67
2018-04-12T13:47:19.505Z,24.53
2018-04-12T13:49:56.674Z,25.60
2018-04-12T13:52:36.647Z,24.13
2018-04-12T13:55:13.296Z,22.40
2018-04-12T13:57:47.139Z,25.60
2018-04-12T14:00:22.944Z,21.53
2018-04-12T14:02:58.027Z,25.93
2018-04-12T14:05:34.720Z,22.13
2018-04-12T14:08:12.107Z,24.40
2018-04-12T14:10:45.971Z,21.10
2018-04-12T14:13:23.720Z,19.33
2018-04-12T14:16:01.007Z,19.93
2018-04-12T14:18:34.769Z,23.67
2018-04-12T14:21:08.433Z,23.10
2018-04-12T14:23:43.843Z,25.83
2018-04-12T14:26:18.483Z,24.67
2018-04-12T14:28:52.161Z,24.40
2018-04-12T14:31:25.823Z,23.53
2018-04-12T14:34:00.457Z,21.27
2018-04-12T14:36:35.121Z,21.37
2018-04-12T14:39:08.804Z,21.13
2018-04-12T14:41:42.264Z,21.07
2018-04-12T14:44:16.925Z,19.27
2018-04-12T14:46:51.573Z,20.97
2018-04-12T14:49:26.207Z,21.00
2018-04-12T14:52:00.648Z,20.40
2018-04-12T14:54:35.148Z,21.70
2018-04-12T14:57:09.579Z,21.83
2018-04-12T14:59:45.174Z,23.03
2018-04-12T15:02:19.894Z,25.03
2018-04-12T15:04:53.570Z,25.90
2018-04-12T15:07:27.060Z,30.20
2018-04-12T15:10:00.744Z,26.53
2018-04-12T15:12:35.181Z,41.87
2018-04-12T15:15:11.223Z,48.73
2018-04-12T15:17:46.635Z,30.33
2018-04-12T15:20:21.273Z,39.13
2018-04-12T15:22:55.747Z,24.87
2018-04-12T15:25:30.394Z,21.93
2018-04-12T15:28:05.052Z,23.40
2018-04-12T15:30:41.599Z,22.17
2018-04-12T15:33:16.325Z,25.20
2018-04-12T15:35:51.123Z,24.57
2018-04-12T15:38:25.353Z,50.37
2018-04-12T15:41:02.224Z,25.83
2018-04-12T15:43:37.872Z,17.67
2018-04-12T15:46:13.566Z,20.13
2018-04-12T15:48:48.002Z,19.93
2018-04-12T15:51:22.039Z,20.30
2018-04-12T15:53:56.685Z,18.80
2018-04-12T15:56:30.385Z,21.33
2018-04-12T15:59:06.098Z,22.37
2018-04-12T16:01:39.986Z,19.57
2018-04-12T16:04:14.168Z,21.83
2018-04-12T16:06:47.917Z,21.90
2018-04-12T16:09:22.708Z,18.03
2018-04-12T16:11:57.149Z,18.77
2018-04-12T16:14:30.829Z,17.67
2018-04-12T16:17:05.270Z,17.27
2018-04-12T16:19:38.730Z,20.10
2018-04-12T16:22:12.474Z,17.93
2018-04-12T16:24:47.139Z,18.63
2018-04-12T16:27:20.819Z,20.37
2018-04-12T16:29:54.519Z,18.20
2018-04-12T16:32:28.188Z,19.70
2018-04-12T16:35:02.624Z,21.90
2018-04-12T16:37:36.316Z,18.83
2018-04-12T16:40:10.034Z,21.67
2018-04-12T16:42:53.609Z,20.53
2018-04-12T16:45:28.882Z,20.63
2018-04-12T16:48:02.607Z,19.40
2018-04-12T16:50:36.087Z,20.13
2018-04-12T16:53:09.467Z,17.13
2018-04-12T16:55:47.576Z,18.67
2018-04-12T16:58:22.047Z,17.87
2018-04-12T17:00:55.748Z,16.23
2018-04-12T17:03:29.446Z,17.87
2018-04-12T17:06:04.107Z,18.97
2018-04-12T17:08:37.828Z,18.80
2018-04-12T17:11:12.526Z,19.57
2018-04-12T17:13:46.006Z,21.43
2018-04-12T17:16:20.545Z,19.53
2018-04-12T17:18:54.252Z,19.70
2018-04-12T17:21:28.943Z,21.50
2018-04-12T17:24:02.322Z,19.87
2018-04-12T17:26:36.984Z,20.47
2018-04-12T17:29:10.692Z,18.77
2018-04-12T17:31:45.381Z,23.03
2018-04-12T17:34:20.056Z,19.87
2018-04-12T17:36:54.502Z,20.53
2018-04-12T17:39:28.167Z,19.97
2018-04-12T17:42:01.847Z,15.93
2018-04-12T17:44:35.525Z,20.37
2018-04-12T17:49:58.697Z,22.23
2018-04-12T17:52:34.975Z,23.13
2018-04-12T17:55:15.029Z,20.73
2018-04-12T18:00:44.364Z,19.53
2018-04-12T18:03:18.179Z,21.70
2018-04-12T18:05:52.858Z,18.83
2018-04-12T18:08:30.309Z,20.47
2018-04-12T18:11:07.650Z,22.57
2018-04-12T18:13:44.768Z,18.17
2018-04-12T18:16:19.531Z,24.17
2018-04-12T18:18:53.240Z,22.33
2018-04-12T18:21:27.941Z,17.37
2018-04-12T18:24:01.633Z,21.47
2018-04-12T18:26:44.835Z,23.00
2018-04-12T18:29:20.255Z,24.10
2018-04-12T18:31:53.917Z,24.27
2018-04-12T18:34:27.589Z,24.67
2018-04-12T18:37:01.277Z,20.93
2018-04-12T18:39:35.919Z,23.87
2018-04-12T18:42:17.015Z,22.00
2018-04-12T18:44:51.714Z,23.00
2018-04-12T18:47:25.433Z,22.47
2018-04-12T18:50:00.822Z,18.43
2018-04-12T18:52:34.486Z,19.70
2018-04-12T18:55:07.982Z,25.40
2018-04-12T18:57:41.653Z,23.53
2018-04-12T19:00:15.329Z,24.60
2018-04-12T19:02:49.011Z,22.97
2018-04-12T19:05:22.876Z,22.20
2018-04-12T19:07:58.284Z,21.97
2018-04-12T19:10:31.961Z,23.73
2018-04-12T19:13:05.621Z,20.83
2018-04-12T19:15:39.290Z,25.23
2018-04-12T19:18:12.975Z,20.20
2018-04-12T19:23:30.491Z,22.23
2018-04-12T19:26:09.797Z,23.13
2018-04-12T19:28:44.553Z,25.33
2018-04-12T19:31:19.202Z,22.80
2018-04-12T19:33:52.896Z,28.93
2018-04-12T19:36:26.567Z,22.93
2018-04-12T19:39:00.332Z,24.23
2018-04-12T19:41:35.377Z,22.97
2018-04-12T19:44:09.041Z,26.60
2018-04-12T19:46:42.703Z,26.57
2018-04-12T19:49:17.367Z,26.47
2018-04-12T19:51:52.566Z,20.60
2018-04-12T19:54:26.331Z,24.10
2018-04-12T19:57:00.229Z,23.53
2018-04-12T19:59:33.893Z,25.47
2018-04-12T20:02:08.589Z,26.43
2018-04-12T20:04:43.112Z,23.20
2018-04-12T20:07:17.541Z,26.43
2018-04-12T20:09:51.584Z,30.87
2018-04-12T20:12:25.278Z,28.47
2018-04-12T20:14:58.954Z,27.83
2018-04-12T20:17:32.658Z,23.43
2018-04-12T20:20:07.325Z,22.93
2018-04-12T20:22:42.057Z,27.20
2018-04-12T20:25:16.775Z,26.87
2018-04-12T20:27:51.456Z,23.93
2018-04-12T20:30:25.164Z,23.80
2018-04-12T20:32:58.830Z,24.03
2018-04-12T20:35:32.520Z,29.63
2018-04-12T20:38:06.195Z,29.90
2018-04-12T20:40:40.842Z,23.00
2018-04-12T20:43:14.482Z,28.63
2018-04-12T20:45:48.161Z,24.90
2018-04-12T20:51:11.946Z,25.47
2018-04-12T20:59:35.158Z,27.20
2018-04-12T21:02:20.279Z,26.53
2018-04-12T21:04:56.606Z,26.23
2018-04-12T21:07:43.387Z,28.33
2018-04-12T21:10:25.198Z,29.93
2018-04-12T21:13:02.308Z,25.57
2018-04-12T21:15:39.981Z,28.73
2018-04-12T21:18:13.658Z,26.17
2018-04-12T21:20:51.850Z,29.07
2018-04-12T21:23:29.473Z,24.63
2018-04-12T21:26:03.167Z,32.00
2018-04-12T21:28:40.181Z,25.87
2018-04-12T21:31:19.258Z,25.90
2018-04-12T21:33:54.057Z,22.07
2018-04-12T21:36:31.027Z,28.90
2018-04-12T21:41:55.401Z,24.47
2018-04-12T21:44:30.814Z,29.17
2018-04-12T21:47:05.033Z,26.43
2018-04-12T21:49:42.958Z,27.37
2018-04-12T21:52:26.901Z,28.50
2018-04-12T21:55:03.773Z,30.37
2018-04-12T21:57:39.424Z,27.20
2018-04-12T22:00:21.673Z,29.80
2018-04-12T22:02:55.091Z,28.87
2018-04-12T22:05:28.868Z,24.87
2018-04-12T22:08:02.626Z,25.83
2018-04-12T22:10:37.364Z,29.77
2018-04-12T22:13:11.114Z,25.20
2018-04-12T22:15:46.388Z,29.07
2018-04-12T22:18:21.120Z,26.50
2018-04-12T22:20:54.878Z,25.13
2018-04-12T22:23:28.628Z,32.17
2018-04-12T22:26:02.400Z,25.07
2018-04-12T22:28:36.913Z,28.13
2018-04-12T22:31:11.438Z,26.13
2018-04-12T22:33:45.957Z,27.30
2018-04-12T22:36:20.485Z,28.90
2018-04-12T22:38:55.007Z,28.23
2018-04-12T22:41:29.544Z,24.37
2018-04-12T22:44:03.016Z,26.53
2018-04-12T22:46:38.472Z,28.27
2018-04-12T22:49:12.994Z,28.63
2018-04-12T22:51:48.290Z,26.60
2018-04-12T22:54:23.018Z,26.37
2018-04-12T22:56:57.780Z,26.33
2018-04-12T22:59:33.010Z,24.40
2018-04-12T23:02:08.530Z,24.93
2018-04-12T23:04:43.293Z,27.90
2018-04-12T23:07:18.746Z,29.33
2018-04-12T23:09:52.521Z,22.00
2018-04-12T23:12:27.054Z,24.13
2018-04-12T23:15:01.585Z,24.67
2018-04-12T23:17:35.351Z,29.10
2018-04-12T23:20:09.110Z,25.17
2018-04-12T23:22:42.874Z,25.03
2018-04-12T23:25:18.385Z,26.27
2018-04-12T23:27:53.155Z,27.47
2018-04-12T23:30:27.682Z,25.50
2018-04-12T23:33:03.377Z,26.00
2018-04-12T23:35:38.090Z,30.33
2018-04-12T23:38:12.817Z,25.00
2018-04-12T23:40:47.575Z,27.47
2018-04-12T23:43:21.337Z,29.70
2018-04-12T23:45:55.089Z,30.57
2018-04-12T23:48:28.844Z,28.37
2018-04-12T23:51:02.653Z,26.30
2018-04-12T23:53:36.436Z,27.80
2018-04-12T23:56:10.190Z,29.87
2018-04-12T23:58:43.959Z,27.60
